map of CGH home
Great Circle Mapper logo
CGH - Airport
Location
City:  São Paulo, São Paulo, Brazil
Name:Congonhas International Airport
ICAO / IATA:SBSP / CGH

Details
Type:Airport (Aerodrome, Airfield)
Use:Public/Civil, International (customs port of entry)
Latitude:23°37'36"S (-23.626691)
Longitude:46°39'19"W (-46.655374)
Datum:WGS 1984
Elevation:2631 ft (802 m)
Runways:2
Longest:6365 × 147 ft (1940 × 45 m), paved

Time
Time Zone:UTC-3 (DST-2)
Local Time:

Weather
METAR:SBSP 020400Z 18004KT CAVOK 18/14 Q1018
TAF:SBSP 020200Z 0206/0306 14003KT 8000 NSC TN16/0209Z TX25/0218Z PROB30 0208/0211 3000 BR BKN005
BECMG 0212/0214 CAVOK
BECMG 0219/0221 16010KT BKN011
BECMG 0300/0302 09005KT BKN008
BECMG 0302/0304 00000KT 8000 BKN006 PROB30 0304/0306 CAVOK
RMK PHG

Related Locations
Nearby:
Farthest:MMD: 12235 mi / 19691 km
Minami Daito Jima, Okinawa, JP

Find:

   beyond  
but within

Other Information
Maps:
NOTAMs:
Links:
Sources:

  
flag of Brazil
flag of São Paulo
flag of São Paulo
  

Sectional Chart

Flight Planning
at skyvector.com

Satellite Image

Google Maps Satellite View

 

Copyright © 2004-2014 Karl L. Swartz. All rights reserved.
The Great Circle Mapper name and logo are trademarks of the Great Circle Mapper.
All other trademarks mentioned herein belong to their respective owners.
Please see credits for attibutions and further copyright information.

  Follow gcmap on Facebook Follow gcmap on Twitter

hCard Microformat

Geo Microformat